createdAt,value
2023-04-16T00:00:31.668Z,70
2023-04-16T00:01:31.696Z,70
2023-04-16T00:02:31.776Z,70
2023-04-16T00:03:31.819Z,70
2023-04-16T00:04:31.779Z,70
2023-04-16T00:05:31.745Z,70
2023-04-16T00:06:31.642Z,70
2023-04-16T00:07:31.659Z,71
2023-04-16T00:08:31.663Z,71
2023-04-16T00:09:31.690Z,70
2023-04-16T00:10:31.673Z,71
2023-04-16T00:11:31.668Z,71
2023-04-16T00:12:31.696Z,71
2023-04-16T00:13:31.662Z,71
2023-04-16T00:14:31.642Z,71
2023-04-16T00:15:31.661Z,71
2023-04-16T00:16:31.658Z,71
2023-04-16T00:17:31.732Z,71
2023-04-16T00:18:31.624Z,71
2023-04-16T00:19:31.734Z,71
2023-04-16T00:20:31.640Z,71
2023-04-16T00:21:31.673Z,71
2023-04-16T00:22:31.653Z,72
2023-04-16T00:23:31.677Z,71
2023-04-16T00:24:31.676Z,72
2023-04-16T00:25:31.650Z,72
2023-04-16T00:26:31.647Z,72
2023-04-16T00:27:31.662Z,72
2023-04-16T00:28:31.656Z,72
2023-04-16T00:29:31.663Z,72
2023-04-16T00:30:31.670Z,72
2023-04-16T00:31:31.700Z,72
2023-04-16T00:32:31.680Z,72
2023-04-16T00:33:31.633Z,73
2023-04-16T00:34:31.649Z,73
2023-04-16T00:35:31.639Z,73
2023-04-16T00:36:31.707Z,73
2023-04-16T00:37:31.651Z,73
2023-04-16T00:38:31.633Z,73
2023-04-16T00:39:31.632Z,73
2023-04-16T00:40:31.691Z,73
2023-04-16T00:41:31.707Z,74
2023-04-16T00:42:31.634Z,74
2023-04-16T00:43:31.702Z,73
2023-04-16T00:44:31.659Z,74
2023-04-16T00:45:31.649Z,74
2023-04-16T00:46:31.670Z,74
2023-04-16T00:47:31.765Z,74
2023-04-16T00:48:31.669Z,74
2023-04-16T00:49:31.676Z,74
2023-04-16T00:50:31.705Z,74
2023-04-16T00:51:31.668Z,74
2023-04-16T00:52:31.672Z,74
2023-04-16T00:53:31.636Z,74
2023-04-16T00:54:31.618Z,74
2023-04-16T00:55:31.656Z,74
2023-04-16T00:56:31.642Z,75
2023-04-16T00:57:31.672Z,75
2023-04-16T00:58:31.641Z,75
2023-04-16T00:59:31.638Z,75
2023-04-16T01:00:31.692Z,75
2023-04-16T01:01:31.731Z,75
2023-04-16T01:02:31.760Z,75
2023-04-16T01:03:31.847Z,75
2023-04-16T01:04:31.728Z,75
2023-04-16T01:05:31.696Z,75
2023-04-16T01:06:31.658Z,75
2023-04-16T01:07:31.642Z,75
2023-04-16T01:08:31.659Z,75
2023-04-16T01:09:31.628Z,75
2023-04-16T01:10:31.627Z,75
2023-04-16T01:11:31.712Z,75
2023-04-16T01:12:31.687Z,75
2023-04-16T01:13:31.646Z,76
2023-04-16T01:14:31.628Z,75
2023-04-16T01:15:31.662Z,75
2023-04-16T01:16:31.645Z,76
2023-04-16T01:17:31.675Z,76
2023-04-16T01:18:31.644Z,76
2023-04-16T01:19:31.658Z,76
2023-04-16T01:20:31.659Z,76
2023-04-16T01:21:31.684Z,76
2023-04-16T01:22:31.660Z,76
2023-04-16T01:23:31.637Z,76
2023-04-16T01:24:31.643Z,76
2023-04-16T01:25:31.666Z,77
2023-04-16T01:26:31.697Z,77
2023-04-16T01:27:31.627Z,77
2023-04-16T01:28:31.658Z,77
2023-04-16T01:29:31.681Z,77
2023-04-16T01:30:31.653Z,78
2023-04-16T01:31:31.679Z,78
2023-04-16T01:32:31.708Z,78
2023-04-16T01:33:31.697Z,78
2023-04-16T01:34:31.664Z,78
2023-04-16T01:35:31.664Z,78
2023-04-16T01:36:31.654Z,78
2023-04-16T01:37:31.662Z,78
2023-04-16T01:38:31.650Z,78
2023-04-16T01:39:31.618Z,78
2023-04-16T01:40:31.763Z,78
2023-04-16T01:41:31.801Z,78
2023-04-16T01:42:31.806Z,78
2023-04-16T01:43:31.874Z,78
2023-04-16T01:44:31.804Z,78
2023-04-16T01:45:31.865Z,78
2023-04-16T01:46:31.899Z,78
2023-04-16T01:47:31.805Z,78
2023-04-16T01:48:31.780Z,78
2023-04-16T01:49:31.760Z,78
2023-04-16T01:50:31.777Z,78
2023-04-16T01:51:31.699Z,78
2023-04-16T01:52:31.790Z,77
2023-04-16T01:53:31.854Z,77
2023-04-16T01:54:31.762Z,78
2023-04-16T01:55:31.779Z,77
2023-04-16T01:56:31.754Z,78
2023-04-16T01:57:31.653Z,77
2023-04-16T01:58:31.659Z,77
2023-04-16T01:59:31.645Z,78
2023-04-16T02:00:31.657Z,78
2023-04-16T02:01:31.955Z,78
2023-04-16T02:02:31.757Z,78
2023-04-16T02:03:31.827Z,78
2023-04-16T02:04:31.611Z,78
2023-04-16T02:05:31.670Z,78
2023-04-16T02:06:31.651Z,78
2023-04-16T02:07:31.645Z,78
2023-04-16T02:08:31.611Z,78
2023-04-16T02:09:31.660Z,78
2023-04-16T02:10:31.658Z,78
2023-04-16T02:11:31.740Z,78
2023-04-16T02:12:31.647Z,78
2023-04-16T02:13:31.666Z,78
2023-04-16T02:14:31.635Z,78
2023-04-16T02:15:31.634Z,78
2023-04-16T02:16:31.715Z,78
2023-04-16T02:17:31.677Z,78
2023-04-16T02:18:31.650Z,78
2023-04-16T02:19:31.637Z,78
2023-04-16T02:20:31.635Z,78
2023-04-16T02:21:31.665Z,78
2023-04-16T02:22:31.653Z,78
2023-04-16T02:23:31.646Z,78
2023-04-16T02:24:31.653Z,79
2023-04-16T02:25:31.620Z,78
2023-04-16T02:26:31.625Z,78
2023-04-16T02:27:31.636Z,78
2023-04-16T02:28:31.644Z,78
2023-04-16T02:29:31.644Z,78
2023-04-16T02:30:31.649Z,78
2023-04-16T02:31:31.634Z,78
2023-04-16T02:32:31.674Z,78
2023-04-16T02:33:31.713Z,78
2023-04-16T02:34:31.638Z,78
2023-04-16T02:35:31.644Z,79
2023-04-16T02:36:31.655Z,79
2023-04-16T02:37:31.643Z,79
2023-04-16T02:38:31.622Z,79
2023-04-16T02:39:31.624Z,79
2023-04-16T02:40:31.660Z,79
2023-04-16T02:41:31.628Z,80
2023-04-16T02:42:31.648Z,80
2023-04-16T02:43:31.615Z,80
2023-04-16T02:44:31.656Z,80
2023-04-16T02:45:31.738Z,80
2023-04-16T02:46:31.702Z,80
2023-04-16T02:47:31.638Z,80
2023-04-16T02:48:31.686Z,81
2023-04-16T02:49:31.625Z,81
2023-04-16T02:50:31.631Z,81
2023-04-16T02:51:31.657Z,81
2023-04-16T02:52:31.668Z,81
2023-04-16T02:53:31.734Z,81
2023-04-16T02:54:31.650Z,81
2023-04-16T02:55:31.626Z,81
2023-04-16T02:56:31.662Z,81
2023-04-16T02:57:31.635Z,81
2023-04-16T02:58:31.628Z,82
2023-04-16T02:59:31.642Z,81
2023-04-16T03:00:31.637Z,81
2023-04-16T03:01:31.701Z,81
2023-04-16T03:02:31.734Z,81
2023-04-16T03:03:31.618Z,81
2023-04-16T03:04:31.727Z,82
2023-04-16T03:05:31.629Z,82
2023-04-16T03:06:31.675Z,82
2023-04-16T03:07:31.612Z,82
2023-04-16T03:08:31.669Z,82
2023-04-16T03:09:31.632Z,82
2023-04-16T03:10:31.765Z,82
2023-04-16T03:11:31.642Z,82
2023-04-16T03:12:31.658Z,82
2023-04-16T03:13:31.651Z,82
2023-04-16T03:14:31.669Z,82
2023-04-16T03:15:31.684Z,82
2023-04-16T03:16:31.632Z,82
2023-04-16T03:17:31.643Z,82
2023-04-16T03:18:31.642Z,82
2023-04-16T03:19:31.612Z,82
2023-04-16T03:20:31.629Z,82
2023-04-16T03:21:31.676Z,82
2023-04-16T03:22:31.752Z,82
2023-04-16T03:23:31.665Z,82
2023-04-16T03:24:31.641Z,82
2023-04-16T03:25:31.805Z,82
2023-04-16T03:26:31.659Z,82
2023-04-16T03:27:31.772Z,82
2023-04-16T03:28:31.636Z,82
2023-04-16T03:29:31.743Z,82
2023-04-16T03:30:31.743Z,82
2023-04-16T03:31:31.833Z,83
2023-04-16T03:32:31.798Z,83
2023-04-16T03:33:31.637Z,83
2023-04-16T03:34:31.624Z,83
2023-04-16T03:35:31.659Z,83
2023-04-16T03:36:31.700Z,83
2023-04-16T03:37:31.801Z,83
2023-04-16T03:38:31.759Z,83
2023-04-16T03:39:31.696Z,83
2023-04-16T03:40:31.750Z,83
2023-04-16T03:41:31.665Z,83
2023-04-16T03:42:31.711Z,83
2023-04-16T03:43:31.751Z,83
2023-04-16T03:44:31.664Z,83
2023-04-16T03:45:31.779Z,83
2023-04-16T03:46:31.824Z,83
2023-04-16T03:47:31.821Z,83
2023-04-16T03:48:31.714Z,83
2023-04-16T03:49:31.731Z,83
2023-04-16T03:50:31.732Z,83
2023-04-16T03:51:31.783Z,83
2023-04-16T03:52:31.630Z,83
2023-04-16T03:53:31.641Z,83
2023-04-16T03:54:31.637Z,83
2023-04-16T03:55:31.609Z,83
2023-04-16T03:56:31.606Z,83
2023-04-16T03:57:31.621Z,83
2023-04-16T03:58:31.634Z,83
2023-04-16T03:59:31.637Z,83
2023-04-16T04:00:31.628Z,84
2023-04-16T04:01:31.640Z,84
2023-04-16T04:02:31.751Z,84
2023-04-16T04:03:31.917Z,84
2023-04-16T04:04:31.709Z,83
2023-04-16T04:05:31.640Z,83
2023-04-16T04:06:31.677Z,83
2023-04-16T04:07:31.670Z,84
2023-04-16T04:08:31.612Z,84
2023-04-16T04:09:31.621Z,84
2023-04-16T04:10:31.640Z,84
2023-04-16T04:11:31.640Z,84
2023-04-16T04:12:31.668Z,84
2023-04-16T04:13:31.634Z,84
2023-04-16T04:14:31.641Z,84
2023-04-16T04:15:31.663Z,83
2023-04-16T04:16:31.733Z,83
2023-04-16T04:17:31.703Z,83
2023-04-16T04:18:31.595Z,84
2023-04-16T04:19:31.625Z,83
2023-04-16T04:20:31.629Z,84
2023-04-16T04:21:31.642Z,84
2023-04-16T04:22:31.631Z,84
2023-04-16T04:23:31.643Z,84
2023-04-16T04:24:31.643Z,84
2023-04-16T04:25:31.652Z,84
2023-04-16T04:26:31.668Z,84
2023-04-16T04:27:31.642Z,84
2023-04-16T04:28:31.657Z,84
2023-04-16T04:29:31.682Z,84
2023-04-16T04:30:31.629Z,84
2023-04-16T04:31:31.655Z,84
2023-04-16T04:32:31.649Z,83
2023-04-16T04:33:31.654Z,83
2023-04-16T04:34:31.643Z,83
2023-04-16T04:35:31.620Z,83
2023-04-16T04:36:31.624Z,83
2023-04-16T04:37:31.622Z,83
2023-04-16T04:38:31.652Z,83
2023-04-16T04:39:31.603Z,83
2023-04-16T04:40:31.652Z,83
2023-04-16T04:41:31.613Z,83
2023-04-16T04:42:31.619Z,83
2023-04-16T04:43:31.716Z,83
2023-04-16T04:44:31.700Z,83
2023-04-16T04:45:32.209Z,83
2023-04-16T04:46:31.617Z,82
2023-04-16T04:47:31.625Z,82
2023-04-16T04:48:31.648Z,82
2023-04-16T04:49:31.661Z,82
2023-04-16T04:50:31.634Z,82
2023-04-16T04:51:31.613Z,82
2023-04-16T04:52:31.641Z,82
2023-04-16T04:53:31.637Z,82
2023-04-16T04:54:31.630Z,81
2023-04-16T04:55:31.674Z,81
2023-04-16T04:56:31.633Z,81
2023-04-16T04:57:31.635Z,80
2023-04-16T04:58:31.629Z,80
2023-04-16T04:59:31.618Z,80
2023-04-16T05:00:31.672Z,79
2023-04-16T05:01:31.661Z,78
2023-04-16T05:02:31.691Z,77
2023-04-16T05:03:31.767Z,76
2023-04-16T05:04:31.635Z,75
2023-04-16T05:05:31.657Z,76
2023-04-16T05:06:31.669Z,75
2023-04-16T05:07:31.617Z,75
2023-04-16T05:08:31.646Z,75
2023-04-16T05:09:31.635Z,75
2023-04-16T05:10:31.645Z,75
2023-04-16T05:11:31.619Z,75
2023-04-16T05:12:31.647Z,75
2023-04-16T05:13:31.619Z,74
2023-04-16T05:14:31.622Z,74
2023-04-16T05:15:31.618Z,74
2023-04-16T05:16:31.650Z,73
2023-04-16T05:17:31.731Z,73
2023-04-16T05:18:31.612Z,73
2023-04-16T05:19:31.597Z,74
2023-04-16T05:20:31.675Z,74
2023-04-16T05:21:31.639Z,74
2023-04-16T05:22:31.611Z,75
2023-04-16T05:23:31.616Z,74
2023-04-16T05:24:31.631Z,74
2023-04-16T05:25:31.611Z,74
2023-04-16T05:26:31.625Z,74
2023-04-16T05:27:31.624Z,74
2023-04-16T05:28:31.663Z,74
2023-04-16T05:29:31.623Z,74
2023-04-16T05:30:31.665Z,73
2023-04-16T05:31:31.615Z,73
2023-04-16T05:32:31.631Z,73
2023-04-16T05:33:31.629Z,73
2023-04-16T05:34:31.693Z,74
2023-04-16T05:35:31.610Z,73
2023-04-16T05:36:31.626Z,72
2023-04-16T05:37:31.630Z,72
2023-04-16T05:38:31.630Z,71
2023-04-16T05:39:31.595Z,72
2023-04-16T05:40:31.611Z,72
2023-04-16T05:41:31.602Z,73
2023-04-16T05:42:31.621Z,72
2023-04-16T05:43:31.594Z,72
2023-04-16T05:44:31.640Z,71
2023-04-16T05:45:31.609Z,70
2023-04-16T05:46:31.709Z,71
2023-04-16T05:47:31.660Z,70
2023-04-16T05:48:31.637Z,70
2023-04-16T05:49:31.607Z,70
2023-04-16T05:50:31.594Z,70
2023-04-16T05:51:31.624Z,70
2023-04-16T05:52:31.605Z,71
2023-04-16T05:53:31.608Z,71
2023-04-16T05:54:31.605Z,70
2023-04-16T05:55:31.614Z,70
2023-04-16T05:56:31.673Z,70
2023-04-16T05:57:31.623Z,70
2023-04-16T05:58:31.596Z,70
2023-04-16T05:59:31.623Z,70
2023-04-16T06:00:31.655Z,69
2023-04-16T06:01:32.816Z,69
2023-04-16T06:02:31.772Z,69
2023-04-16T06:03:31.749Z,69
2023-04-16T06:04:31.640Z,69
2023-04-16T06:05:31.637Z,69
2023-04-16T06:06:31.621Z,69
2023-04-16T06:07:31.655Z,68
2023-04-16T06:08:31.650Z,69
2023-04-16T06:09:31.623Z,70
2023-04-16T06:10:31.612Z,68
2023-04-16T06:11:31.632Z,69
2023-04-16T06:12:31.660Z,68
2023-04-16T06:13:31.626Z,68
2023-04-16T06:14:31.627Z,68
2023-04-16T06:15:31.665Z,69
2023-04-16T06:16:31.799Z,69
2023-04-16T06:17:31.642Z,69
2023-04-16T06:18:31.620Z,68
2023-04-16T06:19:31.586Z,68
2023-04-16T06:20:31.635Z,68
2023-04-16T06:21:31.632Z,69
2023-04-16T06:22:31.611Z,69
2023-04-16T06:23:31.607Z,69
2023-04-16T06:24:31.624Z,69
2023-04-16T06:25:31.639Z,69
2023-04-16T06:26:31.627Z,69
2023-04-16T06:27:31.614Z,69
2023-04-16T06:28:31.623Z,69
2023-04-16T06:29:40.702Z,69
2023-04-16T06:30:31.598Z,68
2023-04-16T06:31:31.631Z,68
2023-04-16T06:32:31.637Z,68
2023-04-16T06:33:31.631Z,68
2023-04-16T06:34:31.637Z,67
2023-04-16T06:35:31.606Z,67
2023-04-16T06:36:31.635Z,67
2023-04-16T06:37:31.631Z,67
2023-04-16T06:38:31.580Z,67
2023-04-16T06:39:31.591Z,67
2023-04-16T06:40:31.605Z,67
2023-04-16T06:41:31.642Z,68
2023-04-16T06:42:31.613Z,68
2023-04-16T06:43:31.611Z,68
2023-04-16T06:44:31.615Z,67
2023-04-16T06:45:31.613Z,66
2023-04-16T06:46:31.648Z,66
2023-04-16T06:47:31.630Z,65
2023-04-16T06:48:31.615Z,66
2023-04-16T06:49:31.627Z,66
2023-04-16T06:50:31.586Z,66
2023-04-16T06:51:31.605Z,66
2023-04-16T06:52:31.613Z,66
2023-04-16T06:53:31.632Z,65
2023-04-16T06:54:31.591Z,65
2023-04-16T06:55:31.628Z,65
2023-04-16T06:56:31.697Z,65
2023-04-16T06:57:31.641Z,65
2023-04-16T06:58:31.628Z,65
2023-04-16T06:59:31.617Z,65
2023-04-16T07:00:31.672Z,65
2023-04-16T07:01:31.817Z,65
2023-04-16T07:02:31.752Z,64
2023-04-16T07:03:31.723Z,64
2023-04-16T07:04:31.581Z,63
2023-04-16T07:05:31.615Z,63
2023-04-16T07:06:31.599Z,63
2023-04-16T07:07:31.613Z,63
2023-04-16T07:08:31.642Z,64
2023-04-16T07:09:31.636Z,63
2023-04-16T07:10:31.581Z,63
2023-04-16T07:11:31.608Z,63
2023-04-16T07:12:31.604Z,63
2023-04-16T07:13:31.602Z,62
2023-04-16T07:14:31.592Z,63
2023-04-16T07:15:31.611Z,62
2023-04-16T07:16:31.661Z,62
2023-04-16T07:17:31.649Z,62
2023-04-16T07:18:31.641Z,62
2023-04-16T07:19:31.650Z,62
2023-04-16T07:20:31.673Z,62
2023-04-16T07:21:31.672Z,61
2023-04-16T07:22:31.608Z,61
2023-04-16T07:23:31.604Z,61
2023-04-16T07:24:31.637Z,61
2023-04-16T07:25:31.648Z,60
2023-04-16T07:26:31.656Z,60
2023-04-16T07:27:31.638Z,59
2023-04-16T07:28:31.620Z,59
2023-04-16T07:29:31.592Z,59
2023-04-16T07:30:31.621Z,59
2023-04-16T07:31:31.759Z,59
2023-04-16T07:32:31.642Z,59
2023-04-16T07:33:31.606Z,59
2023-04-16T07:34:31.616Z,58
2023-04-16T07:35:31.586Z,58
2023-04-16T07:36:31.618Z,58
2023-04-16T07:37:31.609Z,57
2023-04-16T07:38:31.629Z,57
2023-04-16T07:39:31.690Z,58
2023-04-16T07:40:31.620Z,58
2023-04-16T07:41:31.600Z,58
2023-04-16T07:42:31.662Z,59
2023-04-16T07:43:31.592Z,59
2023-04-16T07:44:31.590Z,59
2023-04-16T07:45:31.606Z,59
2023-04-16T07:46:43.594Z,57
2023-04-16T07:47:31.695Z,57
2023-04-16T07:48:31.582Z,56
2023-04-16T07:49:31.609Z,56
2023-04-16T07:50:31.629Z,56
2023-04-16T07:51:31.620Z,56
2023-04-16T07:52:31.618Z,57
2023-04-16T07:53:31.622Z,57
2023-04-16T07:54:31.667Z,57
2023-04-16T07:55:31.616Z,57
2023-04-16T07:56:31.640Z,55
2023-04-16T07:57:31.595Z,55
2023-04-16T07:58:31.600Z,54
2023-04-16T07:59:31.617Z,54
2023-04-16T08:00:31.612Z,54
2023-04-16T08:01:31.620Z,53
2023-04-16T08:02:31.802Z,53
2023-04-16T08:03:31.823Z,52
2023-04-16T08:04:31.762Z,52
2023-04-16T08:05:31.589Z,52
2023-04-16T08:06:31.644Z,52
2023-04-16T08:07:33.924Z,52
2023-04-16T08:08:31.615Z,52
2023-04-16T08:09:31.614Z,52
2023-04-16T08:10:31.619Z,52
2023-04-16T08:11:31.585Z,52
2023-04-16T08:12:31.599Z,51
2023-04-16T08:13:33.527Z,50
2023-04-16T08:14:31.619Z,51
2023-04-16T08:15:31.679Z,51
2023-04-16T08:16:31.622Z,51
2023-04-16T08:17:31.632Z,50
2023-04-16T08:18:31.643Z,50
2023-04-16T08:19:31.604Z,50
2023-04-16T08:20:31.594Z,50
2023-04-16T08:21:31.603Z,50
2023-04-16T08:22:31.626Z,49
2023-04-16T08:23:31.580Z,49
2023-04-16T08:24:31.604Z,49
2023-04-16T08:25:31.599Z,48
2023-04-16T08:26:31.595Z,48
2023-04-16T08:27:31.603Z,48
2023-04-16T08:28:31.599Z,48
2023-04-16T08:29:31.605Z,49
2023-04-16T08:30:31.600Z,48
2023-04-16T08:31:31.868Z,48
2023-04-16T08:32:31.612Z,47
2023-04-16T08:33:31.616Z,47
2023-04-16T08:34:31.586Z,47
2023-04-16T08:35:31.612Z,47
2023-04-16T08:36:31.666Z,47
2023-04-16T08:37:31.595Z,48
2023-04-16T08:38:31.584Z,48
2023-04-16T08:39:31.614Z,48
2023-04-16T08:40:31.631Z,48
2023-04-16T08:41:31.610Z,48
2023-04-16T08:42:31.610Z,47
2023-04-16T08:43:31.645Z,47
2023-04-16T08:44:31.597Z,46
2023-04-16T08:45:31.597Z,46
2023-04-16T08:46:31.669Z,45
2023-04-16T08:47:31.662Z,46
2023-04-16T08:48:31.587Z,46
2023-04-16T08:49:31.599Z,45
2023-04-16T08:50:31.598Z,45
2023-04-16T08:51:31.605Z,45
2023-04-16T08:52:31.620Z,45
2023-04-16T08:53:31.601Z,44
2023-04-16T08:54:31.607Z,44
2023-04-16T08:55:31.626Z,44
2023-04-16T08:56:31.605Z,43
2023-04-16T08:57:31.612Z,45
2023-04-16T08:58:31.619Z,46
2023-04-16T08:59:31.612Z,46
2023-04-16T09:00:31.583Z,46
2023-04-16T09:01:31.631Z,46
2023-04-16T09:02:31.763Z,45
2023-04-16T09:03:33.375Z,46
2023-04-16T09:04:31.640Z,45
2023-04-16T09:05:31.615Z,44
2023-04-16T09:06:31.614Z,44
2023-04-16T09:07:31.649Z,45
2023-04-16T09:08:31.568Z,44
2023-04-16T09:09:33.414Z,45
2023-04-16T09:10:31.599Z,45
2023-04-16T09:11:31.612Z,45
2023-04-16T09:12:31.606Z,45
2023-04-16T09:13:31.609Z,44
2023-04-16T09:14:31.580Z,43
2023-04-16T09:15:32.879Z,43
2023-04-16T09:16:31.629Z,43
2023-04-16T09:17:31.662Z,43
2023-04-16T09:18:31.575Z,42
2023-04-16T09:19:31.600Z,42
2023-04-16T09:20:31.589Z,42
2023-04-16T09:21:31.596Z,41
2023-04-16T09:22:31.610Z,42
2023-04-16T09:23:31.677Z,43
2023-04-16T09:24:31.590Z,42
2023-04-16T09:25:31.606Z,42
2023-04-16T09:26:31.602Z,42
2023-04-16T09:27:31.631Z,43
2023-04-16T09:28:31.575Z,43
2023-04-16T09:29:31.636Z,43
2023-04-16T09:30:31.602Z,43
2023-04-16T09:31:31.671Z,43
2023-04-16T09:32:31.603Z,42
2023-04-16T09:33:32.856Z,44
2023-04-16T09:34:31.579Z,43
2023-04-16T09:35:31.559Z,42
2023-04-16T09:36:31.572Z,42
2023-04-16T09:37:31.652Z,43
2023-04-16T09:38:31.587Z,42
2023-04-16T09:39:31.575Z,42
2023-04-16T09:40:31.599Z,43
2023-04-16T09:41:31.633Z,42
2023-04-16T09:42:31.575Z,42
2023-04-16T09:43:31.633Z,42
2023-04-16T09:44:31.609Z,43
2023-04-16T09:45:31.651Z,42
2023-04-16T09:46:31.601Z,42
2023-04-16T09:47:31.658Z,40
2023-04-16T09:48:31.616Z,41
2023-04-16T09:49:31.627Z,42
2023-04-16T09:50:31.596Z,41
2023-04-16T09:51:31.629Z,41
2023-04-16T09:52:31.616Z,42
2023-04-16T09:53:31.623Z,41
2023-04-16T09:54:31.574Z,42
2023-04-16T09:55:31.576Z,41
2023-04-16T09:56:31.625Z,41
2023-04-16T09:57:31.612Z,40
2023-04-16T09:58:31.609Z,40
2023-04-16T09:59:31.574Z,41
2023-04-16T10:00:31.746Z,41
2023-04-16T10:01:31.703Z,42
2023-04-16T10:02:31.669Z,41
2023-04-16T10:03:31.762Z,41
2023-04-16T10:04:31.630Z,41
2023-04-16T10:05:31.613Z,40
2023-04-16T10:06:31.603Z,40
2023-04-16T10:07:31.606Z,40
2023-04-16T10:08:31.626Z,40
2023-04-16T10:09:31.625Z,40
2023-04-16T10:10:31.604Z,40
2023-04-16T10:11:31.594Z,40
2023-04-16T10:12:31.571Z,40
2023-04-16T10:13:31.631Z,39
2023-04-16T10:14:31.593Z,40
2023-04-16T10:15:31.541Z,40
2023-04-16T10:16:31.613Z,40
2023-04-16T10:17:31.629Z,40
2023-04-16T10:18:31.577Z,39
2023-04-16T10:19:31.597Z,39
2023-04-16T10:20:31.582Z,38
2023-04-16T10:21:31.623Z,38
2023-04-16T10:22:31.593Z,38
2023-04-16T10:23:31.570Z,38
2023-04-16T10:24:31.595Z,38
2023-04-16T10:25:31.589Z,38
2023-04-16T10:26:31.615Z,37
2023-04-16T10:27:31.537Z,37
2023-04-16T10:28:31.653Z,37
2023-04-16T10:29:31.609Z,36
2023-04-16T10:30:31.590Z,36
2023-04-16T10:31:31.558Z,37
2023-04-16T10:32:31.615Z,38
2023-04-16T10:33:31.587Z,37
2023-04-16T10:34:31.569Z,36
2023-04-16T10:35:31.552Z,36
2023-04-16T10:36:31.624Z,36
2023-04-16T10:37:31.598Z,37
2023-04-16T10:38:31.575Z,37
2023-04-16T10:39:31.539Z,36
2023-04-16T10:40:31.597Z,36
2023-04-16T10:41:31.592Z,36
2023-04-16T10:42:31.573Z,36
2023-04-16T10:43:31.543Z,36
2023-04-16T10:44:31.640Z,36
2023-04-16T10:45:31.593Z,36
2023-04-16T10:46:31.688Z,36
2023-04-16T10:47:31.546Z,36
2023-04-16T10:48:46.614Z,35
2023-04-16T10:49:31.576Z,35
2023-04-16T10:50:31.570Z,35
2023-04-16T10:51:31.635Z,34
2023-04-16T10:52:31.669Z,35
2023-04-16T10:53:31.605Z,34
2023-04-16T10:54:31.636Z,33
2023-04-16T10:55:31.519Z,33
2023-04-16T10:56:31.600Z,33
2023-04-16T10:57:31.606Z,33
2023-04-16T10:58:31.572Z,32
2023-04-16T10:59:31.465Z,32
2023-04-16T11:00:31.599Z,33
2023-04-16T11:01:31.681Z,31
2023-04-16T11:02:31.745Z,32
2023-04-16T11:03:31.582Z,32
2023-04-16T11:04:31.789Z,31
2023-04-16T11:05:31.581Z,32
2023-04-16T11:06:31.600Z,32
2023-04-16T11:07:31.479Z,33
2023-04-16T11:08:32.062Z,34
2023-04-16T11:09:31.590Z,33
2023-04-16T11:10:31.570Z,32
2023-04-16T11:11:31.508Z,33
2023-04-16T11:12:31.632Z,32
2023-04-16T11:13:31.575Z,31
2023-04-16T11:14:31.576Z,32
2023-04-16T11:15:31.583Z,32
2023-04-16T11:16:31.629Z,32
2023-04-16T11:17:31.665Z,31
2023-04-16T11:18:31.572Z,32
2023-04-16T11:19:31.439Z,31
2023-04-16T11:20:31.656Z,32
2023-04-16T11:21:31.612Z,31
2023-04-16T11:22:31.583Z,32
2023-04-16T11:23:31.499Z,32
2023-04-16T11:24:31.614Z,32
2023-04-16T11:25:31.696Z,32
2023-04-16T11:26:31.573Z,33
2023-04-16T11:27:31.478Z,32
2023-04-16T11:28:31.573Z,32
2023-04-16T11:29:31.583Z,33
2023-04-16T11:30:31.576Z,32
2023-04-16T11:31:31.458Z,32
2023-04-16T11:32:31.596Z,32
2023-04-16T11:33:31.641Z,32
2023-04-16T11:34:31.573Z,32
2023-04-16T11:35:31.422Z,32
2023-04-16T11:36:31.577Z,31
2023-04-16T11:37:31.586Z,31
2023-04-16T11:38:31.561Z,32
2023-04-16T11:39:31.456Z,31
2023-04-16T11:40:31.773Z,31
2023-04-16T11:41:31.577Z,32
2023-04-16T11:42:31.602Z,31
2023-04-16T11:43:31.415Z,32
2023-04-16T11:44:31.555Z,30
2023-04-16T11:45:31.561Z,30
2023-04-16T11:46:31.578Z,30
2023-04-16T11:47:31.533Z,30
2023-04-16T11:48:31.550Z,31
2023-04-16T11:49:31.577Z,30
2023-04-16T11:50:31.583Z,30
2023-04-16T11:51:31.381Z,29
2023-04-16T11:52:31.615Z,30
2023-04-16T11:53:31.583Z,31
2023-04-16T11:54:31.587Z,30
2023-04-16T11:55:31.418Z,31
2023-04-16T11:56:31.570Z,31
2023-04-16T11:57:31.616Z,31
2023-04-16T11:58:31.556Z,30
2023-04-16T11:59:31.416Z,31
2023-04-16T12:00:31.583Z,31
2023-04-16T12:01:31.578Z,31
2023-04-16T12:02:31.727Z,31
2023-04-16T12:03:31.604Z,31
2023-04-16T12:04:31.630Z,31
2023-04-16T12:05:31.574Z,31
2023-04-16T12:06:31.545Z,30
2023-04-16T12:07:31.387Z,30
2023-04-16T12:08:31.575Z,30
2023-04-16T12:09:31.565Z,30
2023-04-16T12:10:31.592Z,29
2023-04-16T12:11:31.379Z,30
2023-04-16T12:12:32.301Z,30
2023-04-16T12:13:31.600Z,30
2023-04-16T12:14:31.557Z,30
2023-04-16T12:15:31.394Z,30
2023-04-16T12:16:31.587Z,30
2023-04-16T12:17:31.578Z,30
2023-04-16T12:18:31.625Z,30
2023-04-16T12:19:31.398Z,30
2023-04-16T12:20:31.595Z,29
2023-04-16T12:21:31.595Z,30
2023-04-16T12:22:31.566Z,30
2023-04-16T12:23:31.342Z,30
2023-04-16T12:24:31.551Z,30
2023-04-16T12:25:31.588Z,30
2023-04-16T12:26:31.579Z,29
2023-04-16T12:27:31.353Z,31
2023-04-16T12:28:31.602Z,32
2023-04-16T12:29:31.591Z,31
2023-04-16T12:30:31.572Z,31
2023-04-16T12:31:31.316Z,30
2023-04-16T12:32:31.634Z,31
2023-04-16T12:33:31.720Z,30
2023-04-16T12:34:49.202Z,29
2023-04-16T12:35:31.296Z,29
2023-04-16T12:36:31.634Z,30
2023-04-16T12:37:31.569Z,30
2023-04-16T12:38:31.549Z,29
2023-04-16T12:39:31.306Z,29
2023-04-16T12:40:31.570Z,29
2023-04-16T12:41:31.634Z,30
2023-04-16T12:42:31.563Z,30
2023-04-16T12:43:31.305Z,30
2023-04-16T12:44:31.600Z,30
2023-04-16T12:45:31.567Z,30
2023-04-16T12:46:31.626Z,30
2023-04-16T12:47:31.431Z,30
2023-04-16T12:48:31.616Z,30
2023-04-16T12:49:31.577Z,31
2023-04-16T12:50:31.611Z,30
2023-04-16T12:51:31.315Z,29
2023-04-16T12:52:31.576Z,29
2023-04-16T12:53:31.589Z,30
2023-04-16T12:54:31.580Z,29
2023-04-16T12:55:31.277Z,29
2023-04-16T12:56:31.568Z,29
2023-04-16T12:57:31.719Z,29
2023-04-16T12:58:31.572Z,29
2023-04-16T12:59:31.339Z,30
2023-04-16T13:00:31.557Z,29
2023-04-16T13:01:31.618Z,29
2023-04-16T13:02:31.611Z,29
2023-04-16T13:03:31.485Z,29
2023-04-16T13:04:31.645Z,29
2023-04-16T13:05:31.563Z,29
2023-04-16T13:06:31.607Z,29
2023-04-16T13:07:31.260Z,29
2023-04-16T13:08:31.603Z,30
2023-04-16T13:09:31.581Z,29
2023-04-16T13:10:31.565Z,29
2023-04-16T13:11:31.255Z,29
2023-04-16T13:12:31.578Z,29
2023-04-16T13:13:31.573Z,30
2023-04-16T13:14:31.558Z,30
2023-04-16T13:15:31.326Z,29
2023-04-16T13:16:31.589Z,30
2023-04-16T13:17:31.577Z,29
2023-04-16T13:18:31.615Z,30
2023-04-16T13:19:31.230Z,29
2023-04-16T13:20:31.581Z,30
2023-04-16T13:21:31.544Z,30
2023-04-16T13:22:31.595Z,29
2023-04-16T13:23:31.270Z,30
2023-04-16T13:24:31.577Z,30
2023-04-16T13:25:31.576Z,29
2023-04-16T13:26:31.568Z,29
2023-04-16T13:27:31.202Z,30
2023-04-16T13:28:31.595Z,30
2023-04-16T13:29:31.626Z,30
2023-04-16T13:30:31.555Z,30
2023-04-16T13:31:31.298Z,30
2023-04-16T13:32:31.606Z,29
2023-04-16T13:33:31.567Z,29
2023-04-16T13:34:31.575Z,30
2023-04-16T13:35:31.320Z,30
2023-04-16T13:36:31.583Z,30
2023-04-16T13:37:31.548Z,30
2023-04-16T13:38:31.558Z,29
2023-04-16T13:39:31.219Z,29
2023-04-16T13:40:31.624Z,30
2023-04-16T13:41:31.561Z,29
2023-04-16T13:42:31.553Z,30
2023-04-16T13:43:31.202Z,30
2023-04-16T13:44:31.578Z,30
2023-04-16T13:45:31.553Z,29
2023-04-16T13:46:31.612Z,29
2023-04-16T13:47:31.263Z,29
2023-04-16T13:48:31.587Z,29
2023-04-16T13:49:33.134Z,29
2023-04-16T13:50:31.573Z,29
2023-04-16T13:51:31.210Z,30
2023-04-16T13:52:31.577Z,29
2023-04-16T13:53:31.560Z,30
2023-04-16T13:54:31.552Z,30
2023-04-16T13:55:31.188Z,31
2023-04-16T13:56:31.566Z,30
2023-04-16T13:57:31.581Z,30
2023-04-16T13:58:31.619Z,31
2023-04-16T13:59:31.206Z,31
2023-04-16T14:00:31.616Z,31
2023-04-16T14:01:31.568Z,30
2023-04-16T14:02:31.659Z,30
2023-04-16T14:03:31.229Z,30
2023-04-16T14:04:31.630Z,30
2023-04-16T14:05:31.544Z,31
2023-04-16T14:06:31.584Z,30
2023-04-16T14:07:31.160Z,30
2023-04-16T14:08:31.578Z,31
2023-04-16T14:09:31.552Z,31
2023-04-16T14:10:31.569Z,31
2023-04-16T14:11:31.146Z,31
2023-04-16T14:12:31.583Z,31
2023-04-16T14:13:31.560Z,31
2023-04-16T14:14:31.554Z,31
2023-04-16T14:15:31.112Z,31